Time;durP1;ratioP1;P1;durP2;ratioP2;P2;SDS_P1;SDS_P2;PMS_P1;PMS_P2;Temp;Humidity;BMP_temperature;BMP_pressure;BME280_temperature;BME280_humidity;BME280_pressure;Samples;Min_cycle;Max_cycle;Signal;HPM_P1;HPM_P2
2022/01/02 00:01:04;;;;;;;7.97;4.60;;;;;;;;;;5095736;28;20506;-92
2022/01/02 00:03:34;;;;;;;12.55;5.10;;;;;;;;;;5094143;28;20073;-92
2022/01/02 00:06:02;;;;;;;10.45;5.47;;;;;;;;;;5095823;28;20054;-90
2022/01/02 00:08:29;;;;;;;10.57;5.15;;;;;;;;;;5093966;28;20055;-92
2022/01/02 00:10:59;;;;;;;10.73;4.50;;;;;;;;;;5095442;28;20558;-91
2022/01/02 00:13:29;;;;;;;11.02;5.00;;;;;;;;;;5095693;28;20447;-91
2022/01/02 00:16:08;;;;;;;11.35;5.03;;;;;;;;;;5094210;28;20089;-92
2022/01/02 00:18:38;;;;;;;10.68;5.50;;;;;;;;;;5095723;28;20040;-90
2022/01/02 00:21:07;;;;;;;11.77;5.18;;;;;;;;;;5093675;28;20043;-92
2022/01/02 00:23:41;;;;;;;11.32;4.65;;;;;;;;;;5095049;28;20067;-92
2022/01/02 00:26:15;;;;;;;13.60;5.90;;;;;;;;;;5077479;28;20040;-92
2022/01/02 00:28:42;;;;;;;9.30;4.97;;;;;;;;;;5076792;28;20040;-91
2022/01/02 00:31:09;;;;;;;11.70;4.80;;;;;;;;;;5094012;28;20540;-92
2022/01/02 00:33:36;;;;;;;11.82;5.10;;;;;;;;;;5093560;28;20044;-90
2022/01/02 00:36:04;;;;;;;10.60;5.70;;;;;;;;;;5093892;28;20066;-91
2022/01/02 00:38:30;;;;;;;11.00;5.30;;;;;;;;;;5093454;28;20479;-90
2022/01/02 00:40:58;;;;;;;10.75;5.45;;;;;;;;;;5093664;28;20051;-92
2022/01/02 00:43:31;;;;;;;12.10;5.15;;;;;;;;;;5076894;28;20048;-91
2022/01/02 00:46:00;;;;;;;10.20;5.07;;;;;;;;;;5093988;28;20372;-91
2022/01/02 00:48:28;;;;;;;13.10;5.35;;;;;;;;;;5094793;28;20048;-91
2022/01/02 00:51:01;;;;;;;11.15;5.60;;;;;;;;;;5094618;28;20441;-90
2022/01/02 00:53:32;;;;;;;9.82;5.40;;;;;;;;;;5093223;28;20044;-91
2022/01/02 00:56:00;;;;;;;14.60;6.25;;;;;;;;;;5094830;28;20113;-90
2022/01/02 00:58:35;;;;;;;13.68;5.90;;;;;;;;;;5094434;28;20216;-92
2022/01/02 01:01:04;;;;;;;13.98;5.65;;;;;;;;;;5094853;28;20043;-92
2022/01/02 01:03:31;;;;;;;13.15;5.43;;;;;;;;;;5094609;28;20066;-90
2022/01/02 01:05:59;;;;;;;10.90;5.93;;;;;;;;;;5093547;28;20048;-92
2022/01/02 01:08:25;;;;;;;11.02;5.72;;;;;;;;;;5093356;28;20123;-92
2022/01/02 01:10:51;;;;;;;10.35;5.68;;;;;;;;;;5093714;28;20043;-91
2022/01/02 01:13:18;;;;;;;13.20;5.70;;;;;;;;;;5095046;28;20093;-91
2022/01/02 01:15:44;;;;;;;11.98;5.80;;;;;;;;;;5094863;28;20032;-92
2022/01/02 01:18:11;;;;;;;15.00;5.93;;;;;;;;;;5094746;28;20495;-90
2022/01/02 01:20:40;;;;;;;11.27;5.60;;;;;;;;;;5093968;28;20225;-92
2022/01/02 01:23:06;;;;;;;14.60;5.63;;;;;;;;;;5093417;28;20048;-92
2022/01/02 01:25:33;;;;;;;10.93;5.72;;;;;;;;;;5094441;28;20083;-92
2022/01/02 01:28:00;;;;;;;11.23;5.55;;;;;;;;;;5093115;28;20488;-92
2022/01/02 01:30:27;;;;;;;11.07;5.85;;;;;;;;;;5093598;28;20048;-92
2022/01/02 01:32:54;;;;;;;13.27;6.28;;;;;;;;;;5093832;28;20043;-91
2022/01/02 01:35:20;;;;;;;15.80;6.55;;;;;;;;;;5093791;28;20514;-93
2022/01/02 01:37:46;;;;;;;12.65;6.72;;;;;;;;;;5093239;28;20560;-90
2022/01/02 01:40:13;;;;;;;16.75;7.13;;;;;;;;;;5093862;28;20040;-90
2022/01/02 01:42:42;;;;;;;11.27;5.95;;;;;;;;;;5093572;28;20092;-90
2022/01/02 01:47:45;;;;;;;12.30;6.00;;;;;;;;;;5093610;28;20048;-92
2022/01/02 01:50:12;;;;;;;12.45;6.40;;;;;;;;;;5092775;28;20042;-90
2022/01/02 01:52:38;;;;;;;14.23;6.80;;;;;;;;;;5092043;28;20043;-89
2022/01/02 01:55:05;;;;;;;13.07;6.00;;;;;;;;;;5093879;28;20036;-92
2022/01/02 01:57:31;;;;;;;13.43;6.07;;;;;;;;;;5093344;28;20126;-92
2022/01/02 01:59:58;;;;;;;16.55;7.35;;;;;;;;;;5092182;28;20054;-91
2022/01/02 02:02:24;;;;;;;16.60;7.35;;;;;;;;;;5092053;28;20047;-90
2022/01/02 02:04:50;;;;;;;15.35;6.88;;;;;;;;;;5092642;28;20044;-92
2022/01/02 02:07:16;;;;;;;14.30;6.88;;;;;;;;;;5092303;28;20054;-92
2022/01/02 02:10:03;;;;;;;13.13;6.43;;;;;;;;;;5093497;28;20040;-92
2022/01/02 02:12:30;;;;;;;13.50;7.07;;;;;;;;;;5092099;28;20049;-90
2022/01/02 02:14:56;;;;;;;13.27;6.90;;;;;;;;;;5092416;28;20044;-91
2022/01/02 02:17:23;;;;;;;15.52;7.35;;;;;;;;;;5092010;28;20066;-91
2022/01/02 02:19:49;;;;;;;17.33;8.15;;;;;;;;;;5093318;28;20475;-92
2022/01/02 02:22:15;;;;;;;16.63;7.47;;;;;;;;;;5092033;28;20479;-91
2022/01/02 02:24:41;;;;;;;18.08;7.53;;;;;;;;;;5091674;28;20082;-93
2022/01/02 02:27:07;;;;;;;14.82;7.72;;;;;;;;;;5092300;28;20047;-90
2022/01/02 02:29:33;;;;;;;23.80;7.95;;;;;;;;;;5093546;28;20040;-90
2022/01/02 02:31:59;;;;;;;15.50;7.60;;;;;;;;;;5075393;28;20050;-90
2022/01/02 02:34:25;;;;;;;15.38;7.20;;;;;;;;;;5092213;28;20048;-89
2022/01/02 02:36:51;;;;;;;17.00;7.60;;;;;;;;;;5093310;28;20471;-90
2022/01/02 02:39:17;;;;;;;14.57;7.95;;;;;;;;;;5093026;28;20050;-92
2022/01/02 02:41:44;;;;;;;14.98;6.68;;;;;;;;;;5093510;28;20093;-91
2022/01/02 02:44:33;;;;;;;15.20;7.50;;;;;;;;;;5093307;28;20128;-91
2022/01/02 02:49:44;;;;;;;16.67;7.65;;;;;;;;;;5097342;28;20457;-91
2022/01/02 02:52:23;;;;;;;19.25;7.55;;;;;;;;;;5096262;28;20032;-91
2022/01/02 02:54:51;;;;;;;18.15;6.97;;;;;;;;;;5097008;28;20455;-91
2022/01/02 02:57:19;;;;;;;15.70;7.40;;;;;;;;;;5095826;28;20114;-92
2022/01/02 02:59:45;;;;;;;15.75;7.40;;;;;;;;;;5095682;28;20044;-89
2022/01/02 03:02:11;;;;;;;16.95;7.70;;;;;;;;;;5097213;28;20039;-91
2022/01/02 03:04:37;;;;;;;16.52;7.43;;;;;;;;;;5096757;28;20043;-91
2022/01/02 03:07:03;;;;;;;18.15;7.63;;;;;;;;;;5095540;28;20044;-92
2022/01/02 03:09:40;;;;;;;15.90;7.43;;;;;;;;;;5095325;28;20443;-92
2022/01/02 03:12:07;;;;;;;18.52;7.57;;;;;;;;;;5095683;28;20039;-90
2022/01/02 03:14:33;;;;;;;15.77;7.32;;;;;;;;;;5096354;28;20094;-91
2022/01/02 03:17:00;;;;;;;15.85;7.68;;;;;;;;;;5096593;28;20078;-91
2022/01/02 03:19:26;;;;;;;16.02;7.88;;;;;;;;;;5095120;28;20403;-90
2022/01/02 03:21:52;;;;;;;17.50;8.10;;;;;;;;;;5095171;28;20051;-90
2022/01/02 03:24:18;;;;;;;19.80;7.90;;;;;;;;;;5094762;28;20133;-89
2022/01/02 03:26:44;;;;;;;20.63;8.05;;;;;;;;;;5096637;28;20086;-89
2022/01/02 03:29:10;;;;;;;18.88;7.32;;;;;;;;;;5094683;28;20071;-91
2022/01/02 03:31:36;;;;;;;15.60;7.43;;;;;;;;;;5096203;28;20032;-90
2022/01/02 03:34:02;;;;;;;15.95;7.80;;;;;;;;;;5094691;28;20040;-90
2022/01/02 03:36:28;;;;;;;18.30;7.00;;;;;;;;;;5096266;28;20040;-92
2022/01/02 03:38:54;;;;;;;14.52;7.63;;;;;;;;;;5094637;28;20437;-92
2022/01/02 03:41:20;;;;;;;16.60;7.93;;;;;;;;;;5094920;28;20097;-92
2022/01/02 03:43:46;;;;;;;15.95;7.65;;;;;;;;;;5095751;28;20039;-92
2022/01/02 03:46:12;;;;;;;15.88;8.20;;;;;;;;;;5096264;28;20044;-92
2022/01/02 03:48:38;;;;;;;15.70;7.60;;;;;;;;;;5095797;28;20043;-91
2022/01/02 03:51:05;;;;;;;16.48;7.80;;;;;;;;;;5094794;28;20471;-90
2022/01/02 03:53:31;;;;;;;17.40;7.45;;;;;;;;;;5094591;28;20628;-90
2022/01/02 03:55:57;;;;;;;14.70;7.50;;;;;;;;;;5095910;28;20062;-91
2022/01/02 03:58:23;;;;;;;14.82;7.20;;;;;;;;;;5094644;28;20048;-93
2022/01/02 04:00:49;;;;;;;14.57;7.00;;;;;;;;;;5094725;28;20055;-90
2022/01/02 04:03:15;;;;;;;19.98;8.45;;;;;;;;;;5095863;28;20039;-89
2022/01/02 04:05:42;;;;;;;15.27;7.88;;;;;;;;;;5094635;28;20437;-89
2022/01/02 04:08:09;;;;;;;16.10;7.57;;;;;;;;;;5094252;28;20376;-91
2022/01/02 04:10:35;;;;;;;15.07;7.10;;;;;;;;;;5095720;28;20036;-91
2022/01/02 04:13:01;;;;;;;15.23;6.63;;;;;;;;;;5095407;28;20050;-92
2022/01/02 04:15:27;;;;;;;15.07;6.90;;;;;;;;;;5094107;28;20093;-89
2022/01/02 04:17:53;;;;;;;17.08;7.32;;;;;;;;;;5095501;28;20493;-91
2022/01/02 04:20:19;;;;;;;16.58;6.80;;;;;;;;;;5094047;28;20040;-91
2022/01/02 04:22:45;;;;;;;18.42;7.45;;;;;;;;;;5093963;28;20044;-92
2022/01/02 04:25:11;;;;;;;16.90;6.32;;;;;;;;;;5093697;28;20553;-91
2022/01/02 04:27:38;;;;;;;19.10;6.78;;;;;;;;;;5093804;28;20506;-90
2022/01/02 04:30:05;;;;;;;19.95;7.45;;;;;;;;;;5095043;28;20122;-92
2022/01/02 04:32:31;;;;;;;17.88;6.68;;;;;;;;;;5095205;28;20502;-90
2022/01/02 04:34:57;;;;;;;15.55;5.97;;;;;;;;;;5094960;28;20032;-91
2022/01/02 04:37:23;;;;;;;15.52;6.85;;;;;;;;;;5095061;28;20530;-91
2022/01/02 04:39:49;;;;;;;14.00;5.80;;;;;;;;;;5094863;28;20035;-92
2022/01/02 04:42:15;;;;;;;18.55;6.78;;;;;;;;;;5094949;28;20498;-91
2022/01/02 04:44:41;;;;;;;20.50;7.05;;;;;;;;;;5093605;28;20051;-91
2022/01/02 04:47:07;;;;;;;17.00;6.90;;;;;;;;;;5094947;28;20044;-92
2022/01/02 04:49:33;;;;;;;17.42;6.70;;;;;;;;;;5094830;28;20044;-91
2022/01/02 04:51:59;;;;;;;15.18;6.43;;;;;;;;;;5093757;28;20089;-91
2022/01/02 04:54:25;;;;;;;19.88;6.13;;;;;;;;;;5094597;28;20047;-90
2022/01/02 04:56:51;;;;;;;21.50;6.78;;;;;;;;;;5094756;28;20332;-92
2022/01/02 04:59:18;;;;;;;15.00;6.68;;;;;;;;;;5094479;28;20483;-91
2022/01/02 05:01:44;;;;;;;17.10;6.28;;;;;;;;;;5093411;28;20055;-92
2022/01/02 05:04:11;;;;;;;14.27;6.55;;;;;;;;;;5093124;28;20100;-91
2022/01/02 05:06:37;;;;;;;14.38;6.78;;;;;;;;;;5092662;28;20544;-89
2022/01/02 05:09:04;;;;;;;17.27;6.13;;;;;;;;;;5092832;28;20044;-91
2022/01/02 05:11:30;;;;;;;17.55;6.50;;;;;;;;;;5093346;28;20129;-91
2022/01/02 05:13:56;;;;;;;15.95;6.22;;;;;;;;;;5094090;28;20040;-91
2022/01/02 05:16:22;;;;;;;18.25;6.13;;;;;;;;;;5092931;28;20094;-92
2022/01/02 05:18:48;;;;;;;14.18;6.10;;;;;;;;;;5092978;28;20079;-91
2022/01/02 05:21:14;;;;;;;14.30;5.75;;;;;;;;;;5094215;28;20119;-92
2022/01/02 05:23:41;;;;;;;17.58;6.03;;;;;;;;;;5093807;28;20040;-91
2022/01/02 05:26:07;;;;;;;16.98;5.80;;;;;;;;;;5093770;28;20142;-89
2022/01/02 05:28:33;;;;;;;18.42;6.22;;;;;;;;;;5094059;28;20040;-91
2022/01/02 05:30:59;;;;;;;16.75;5.93;;;;;;;;;;5094155;28;20032;-91
2022/01/02 05:33:25;;;;;;;13.13;5.10;;;;;;;;;;5092720;28;20079;-92
2022/01/02 05:35:52;;;;;;;19.45;6.22;;;;;;;;;;5092453;28;20054;-92
2022/01/02 05:38:19;;;;;;;14.07;5.50;;;;;;;;;;5092972;28;20039;-90
2022/01/02 05:40:46;;;;;;;16.73;5.18;;;;;;;;;;5092462;28;20051;-92
2022/01/02 05:43:12;;;;;;;13.35;5.55;;;;;;;;;;5092674;28;20040;-92
2022/01/02 05:45:38;;;;;;;14.40;5.40;;;;;;;;;;5092278;28;20063;-91
2022/01/02 05:48:05;;;;;;;12.60;5.30;;;;;;;;;;5092685;28;20047;-93
2022/01/02 05:50:31;;;;;;;13.23;5.68;;;;;;;;;;5092378;28;20089;-90
2022/01/02 05:52:57;;;;;;;19.48;5.75;;;;;;;;;;5093670;28;20044;-91
2022/01/02 05:55:23;;;;;;;15.38;5.20;;;;;;;;;;5093698;28;20437;-92
2022/01/02 05:57:49;;;;;;;20.90;5.93;;;;;;;;;;5093944;28;20040;-92
2022/01/02 06:00:15;;;;;;;18.35;5.10;;;;;;;;;;5093800;28;20036;-91
2022/01/02 06:02:41;;;;;;;20.60;5.60;;;;;;;;;;5093875;28;20400;-92
2022/01/02 06:05:08;;;;;;;19.10;5.72;;;;;;;;;;5092345;28;20043;-93
2022/01/02 06:07:34;;;;;;;13.20;5.35;;;;;;;;;;5092381;28;20051;-92
2022/01/02 06:10:04;;;;;;;12.70;5.50;;;;;;;;;;5092268;28;20082;-89
2022/01/02 06:12:30;;;;;;;17.55;5.18;;;;;;;;;;5092579;28;20051;-91
2022/01/02 06:14:56;;;;;;;16.13;4.80;;;;;;;;;;5092393;28;20040;-92
2022/01/02 06:17:22;;;;;;;16.38;5.32;;;;;;;;;;5092553;28;20048;-92
2022/01/02 06:19:48;;;;;;;14.65;4.75;;;;;;;;;;5094343;28;20032;-92
2022/01/02 06:22:14;;;;;;;16.83;5.25;;;;;;;;;;5096286;28;20040;-90
2022/01/02 06:24:40;;;;;;;15.85;4.82;;;;;;;;;;5095969;28;20055;-92
2022/01/02 06:27:06;;;;;;;16.40;4.88;;;;;;;;;;5096351;28;20052;-91
2022/01/02 06:29:32;;;;;;;15.15;5.22;;;;;;;;;;5096353;28;20046;-92
2022/01/02 06:31:58;;;;;;;16.25;5.32;;;;;;;;;;5097163;28;20044;-92
2022/01/02 06:34:24;;;;;;;11.75;4.70;;;;;;;;;;5096488;28;20471;-92
2022/01/02 06:36:50;;;;;;;17.10;4.78;;;;;;;;;;5096180;28;20399;-92
2022/01/02 06:39:16;;;;;;;15.10;4.60;;;;;;;;;;5097616;28;20047;-91
2022/01/02 06:41:42;;;;;;;13.25;4.63;;;;;;;;;;5096079;28;20048;-91
2022/01/02 06:44:08;;;;;;;9.63;4.50;;;;;;;;;;5079033;28;20044;-92
2022/01/02 06:46:34;;;;;;;15.55;4.78;;;;;;;;;;5097384;28;20391;-92
2022/01/02 06:49:00;;;;;;;13.52;4.30;;;;;;;;;;5096030;28;20056;-91
2022/01/02 06:51:26;;;;;;;11.13;4.30;;;;;;;;;;5095778;28;20046;-92
2022/01/02 06:53:52;;;;;;;14.75;4.03;;;;;;;;;;5097001;28;20044;-91
2022/01/02 06:56:18;;;;;;;13.13;4.20;;;;;;;;;;5096826;28;20075;-92
2022/01/02 06:58:44;;;;;;;16.88;4.45;;;;;;;;;;5095817;28;20044;-92
2022/01/02 07:01:10;;;;;;;12.70;3.85;;;;;;;;;;5095604;28;20044;-91
2022/01/02 07:03:37;;;;;;;9.88;3.42;;;;;;;;;;5096977;28;20457;-91
2022/01/02 07:06:03;;;;;;;14.63;3.20;;;;;;;;;;5095768;28;20114;-90
2022/01/02 07:08:29;;;;;;;13.75;3.72;;;;;;;;;;5096961;28;20563;-93
2022/01/02 07:10:56;;;;;;;12.13;3.13;;;;;;;;;;5096869;28;20119;-92
2022/01/02 07:13:22;;;;;;;13.63;3.80;;;;;;;;;;5095682;28;20476;-90
2022/01/02 07:15:48;;;;;;;12.55;3.65;;;;;;;;;;5096539;28;20046;-91
2022/01/02 07:18:14;;;;;;;13.60;3.15;;;;;;;;;;5096980;28;20086;-91
2022/01/02 07:20:40;;;;;;;14.18;3.35;;;;;;;;;;5095505;28;20442;-91
2022/01/02 07:23:06;;;;;;;10.90;3.65;;;;;;;;;;5095537;28;20051;-91
2022/01/02 07:25:32;;;;;;;11.98;3.17;;;;;;;;;;5095108;28;20088;-91
2022/01/02 07:27:58;;;;;;;11.98;3.08;;;;;;;;;;5095160;28;20080;-91
2022/01/02 07:30:24;;;;;;;9.75;3.22;;;;;;;;;;5094662;28;20032;-92
2022/01/02 07:32:50;;;;;;;10.25;3.38;;;;;;;;;;5095372;28;20028;-92
2022/01/02 07:35:16;;;;;;;11.90;3.13;;;;;;;;;;5095005;28;20044;-91
2022/01/02 07:37:42;;;;;;;11.85;3.58;;;;;;;;;;5093710;28;20481;-91
2022/01/02 07:40:08;;;;;;;15.20;3.90;;;;;;;;;;5088174;28;20047;-90
2022/01/02 07:42:34;;;;;;;11.70;3.65;;;;;;;;;;5075449;28;20445;-89
2022/01/02 07:45:00;;;;;;;12.05;3.70;;;;;;;;;;5079605;28;20040;-90
2022/01/02 07:47:26;;;;;;;10.98;3.28;;;;;;;;;;5083125;28;20044;-92
2022/01/02 07:49:52;;;;;;;9.15;3.47;;;;;;;;;;5085808;28;20093;-92
2022/01/02 07:52:18;;;;;;;10.65;3.40;;;;;;;;;;5082317;28;20044;-92
2022/01/02 07:54:44;;;;;;;11.70;3.88;;;;;;;;;;5087417;28;20044;-90
2022/01/02 07:57:10;;;;;;;10.18;3.50;;;;;;;;;;5082019;28;20054;-90
2022/01/02 07:59:36;;;;;;;11.13;3.72;;;;;;;;;;5081679;28;20184;-92
2022/01/02 08:02:02;;;;;;;9.98;4.03;;;;;;;;;;5084368;28;20123;-91
2022/01/02 08:04:28;;;;;;;11.90;3.45;;;;;;;;;;5086283;28;20047;-90
2022/01/02 08:06:54;;;;;;;8.63;3.80;;;;;;;;;;5080960;28;20441;-90
2022/01/02 08:09:20;;;;;;;9.48;3.90;;;;;;;;;;5082739;28;20055;-90
2022/01/02 08:11:45;;;;;;;11.38;3.67;;;;;;;;;;5085267;28;20032;-90
2022/01/02 08:14:12;;;;;;;12.35;3.65;;;;;;;;;;5079531;28;20087;-91
2022/01/02 08:16:38;;;;;;;11.95;3.78;;;;;;;;;;5084208;28;20040;-90
2022/01/02 08:19:06;;;;;;;11.75;4.00;;;;;;;;;;5076020;28;20535;-89
2022/01/02 08:21:32;;;;;;;9.75;4.00;;;;;;;;;;5094791;28;20110;-90
2022/01/02 08:23:58;;;;;;;13.20;3.92;;;;;;;;;;5093776;28;20079;-89
2022/01/02 08:26:24;;;;;;;10.23;4.07;;;;;;;;;;5094945;28;20087;-91
2022/01/02 08:28:51;;;;;;;12.20;3.92;;;;;;;;;;5095076;28;20075;-89
2022/01/02 08:31:17;;;;;;;9.55;3.97;;;;;;;;;;5093267;28;20036;-91
2022/01/02 08:33:43;;;;;;;10.45;3.72;;;;;;;;;;5093606;28;20032;-90
2022/01/02 08:36:09;;;;;;;16.67;4.55;;;;;;;;;;5093589;28;20309;-90
2022/01/02 08:38:36;;;;;;;12.45;4.15;;;;;;;;;;5094893;28;20047;-88
2022/01/02 08:41:02;;;;;;;14.25;4.10;;;;;;;;;;5093282;28;20043;-89
2022/01/02 08:43:28;;;;;;;9.50;3.50;;;;;;;;;;5094670;28;20128;-87
2022/01/02 08:45:54;;;;;;;11.07;3.92;;;;;;;;;;5093318;28;20072;-91
2022/01/02 08:48:19;;;;;;;11.65;4.55;;;;;;;;;;5093402;28;20056;-92
2022/01/02 08:50:45;;;;;;;11.82;4.07;;;;;;;;;;5094689;28;20036;-91
2022/01/02 08:53:11;;;;;;;10.20;3.58;;;;;;;;;;5096175;28;20036;-88
2022/01/02 08:55:38;;;;;;;12.77;4.20;;;;;;;;;;5093348;28;20040;-92
2022/01/02 08:58:04;;;;;;;8.80;3.97;;;;;;;;;;5092710;28;20131;-92
2022/01/02 09:00:31;;;;;;;10.43;4.20;;;;;;;;;;5092909;28;20127;-90
2022/01/02 09:02:57;;;;;;;13.05;4.22;;;;;;;;;;5092819;28;20055;-91
2022/01/02 09:05:25;;;;;;;13.52;4.28;;;;;;;;;;5093138;28;20391;-91
2022/01/02 09:07:51;;;;;;;9.10;4.07;;;;;;;;;;5094219;28;20054;-92
2022/01/02 09:10:18;;;;;;;12.60;4.53;;;;;;;;;;5093426;28;20384;-91
2022/01/02 09:12:45;;;;;;;12.80;4.55;;;;;;;;;;5092725;28;20116;-92
2022/01/02 09:15:11;;;;;;;9.65;3.97;;;;;;;;;;5092645;28;20044;-90
2022/01/02 09:17:38;;;;;;;9.73;4.60;;;;;;;;;;5092929;28;20055;-91
2022/01/02 09:20:05;;;;;;;7.75;4.30;;;;;;;;;;5094382;28;20067;-90
2022/01/02 09:22:31;;;;;;;12.82;4.55;;;;;;;;;;5093680;28;20495;-91
2022/01/02 09:24:57;;;;;;;10.18;4.32;;;;;;;;;;5093897;28;20105;-90
2022/01/02 09:27:23;;;;;;;12.88;4.25;;;;;;;;;;5092523;28;20131;-92
2022/01/02 09:29:49;;;;;;;14.73;4.97;;;;;;;;;;5094111;28;20120;-90
2022/01/02 09:32:16;;;;;;;10.73;4.22;;;;;;;;;;5092801;28;20044;-89
2022/01/02 09:34:42;;;;;;;11.15;4.80;;;;;;;;;;5092602;28;20062;-89
2022/01/02 09:37:08;;;;;;;13.77;5.00;;;;;;;;;;5092659;28;20040;-91
2022/01/02 09:39:34;;;;;;;10.95;4.60;;;;;;;;;;5095550;28;20475;-89
2022/01/02 09:42:00;;;;;;;12.45;4.68;;;;;;;;;;5092610;28;20083;-91
2022/01/02 09:44:29;;;;;;;8.93;3.97;;;;;;;;;;5093477;28;20082;-91
2022/01/02 09:46:55;;;;;;;11.23;4.22;;;;;;;;;;5092445;28;20051;-88
2022/01/02 09:49:21;;;;;;;12.63;4.43;;;;;;;;;;5094189;28;20392;-91
2022/01/02 09:51:48;;;;;;;11.30;4.22;;;;;;;;;;5092376;28;20167;-91
2022/01/02 09:54:14;;;;;;;11.00;4.30;;;;;;;;;;5092054;28;20047;-93
2022/01/02 09:56:40;;;;;;;9.73;4.60;;;;;;;;;;5092882;28;20478;-92
2022/01/02 09:59:06;;;;;;;12.23;4.78;;;;;;;;;;5082228;28;20123;-93
2022/01/02 10:01:32;;;;;;;12.68;4.47;;;;;;;;;;5087073;28;20102;-91
2022/01/02 10:03:59;;;;;;;10.80;4.97;;;;;;;;;;5092498;28;20119;-91
2022/01/02 10:06:48;;;;;;;10.88;4.07;;;;;;;;;;5093796;28;20072;-91
2022/01/02 10:09:32;;;;;;;10.35;4.38;;;;;;;;;;5091874;28;20054;-92
2022/01/02 10:12:17;;;;;;;11.70;4.15;;;;;;;;;;5094145;28;20036;-92
2022/01/02 10:14:43;;;;;;;10.27;4.85;;;;;;;;;;5085169;28;20043;-92
2022/01/02 10:17:09;;;;;;;8.38;4.45;;;;;;;;;;5083921;28;20082;-90
2022/01/02 10:19:38;;;;;;;9.93;3.95;;;;;;;;;;5093313;28;20083;-91
2022/01/02 10:22:05;;;;;;;8.95;4.38;;;;;;;;;;5093081;28;20364;-92
2022/01/02 10:24:36;;;;;;;9.45;4.43;;;;;;;;;;5092384;28;20511;-91
2022/01/02 10:27:19;;;;;;;10.98;4.57;;;;;;;;;;5092648;28;20044;-91
2022/01/02 10:29:48;;;;;;;10.38;4.45;;;;;;;;;;5093833;28;20101;-93
2022/01/02 10:32:34;;;;;;;11.10;4.60;;;;;;;;;;5092216;28;20040;-91
2022/01/02 10:35:08;;;;;;;10.13;4.82;;;;;;;;;;5092751;28;20047;-90
2022/01/02 10:37:34;;;;;;;17.60;5.90;;;;;;;;;;5092248;28;20823;-90
2022/01/02 10:40:00;;;;;;;8.25;5.13;;;;;;;;;;5092394;28;20044;-91
2022/01/02 10:42:27;;;;;;;12.52;5.50;;;;;;;;;;5093342;28;20449;-88
2022/01/02 10:44:53;;;;;;;9.55;5.13;;;;;;;;;;5091792;28;20044;-92
2022/01/02 10:47:21;;;;;;;11.43;5.15;;;;;;;;;;5092919;28;20066;-92
2022/01/02 10:50:04;;;;;;;15.98;6.05;;;;;;;;;;5093595;28;20033;-92
2022/01/02 10:52:34;;;;;;;16.60;6.35;;;;;;;;;;5091706;28;20097;-91
2022/01/02 10:55:05;;;;;;;9.93;5.47;;;;;;;;;;5091722;28;20047;-89
2022/01/02 10:57:31;;;;;;;13.50;5.75;;;;;;;;;;5092921;28;20295;-93
2022/01/02 10:59:58;;;;;;;14.68;6.30;;;;;;;;;;5091996;28;20044;-92
2022/01/02 11:02:25;;;;;;;12.27;5.82;;;;;;;;;;5093367;28;20061;-92
2022/01/02 11:05:03;;;;;;;12.73;6.60;;;;;;;;;;5092848;28;20047;-91
2022/01/02 11:07:36;;;;;;;12.68;5.38;;;;;;;;;;5097845;28;20040;-89
2022/01/02 11:10:02;;;;;;;9.55;5.63;;;;;;;;;;5098443;28;20475;-90
2022/01/02 11:12:28;;;;;;;13.15;5.00;;;;;;;;;;5097390;28;20383;-91
2022/01/02 11:14:54;;;;;;;12.93;5.32;;;;;;;;;;5097833;28;20403;-91
2022/01/02 11:17:20;;;;;;;11.13;4.72;;;;;;;;;;5097311;28;20040;-92
2022/01/02 11:19:46;;;;;;;12.18;4.95;;;;;;;;;;5097621;28;20039;-92
2022/01/02 11:22:14;;;;;;;11.75;4.97;;;;;;;;;;5097119;28;20040;-93
2022/01/02 11:25:01;;;;;;;8.95;4.43;;;;;;;;;;5097249;28;20395;-92
2022/01/02 11:27:34;;;;;;;10.07;4.57;;;;;;;;;;5098416;28;20082;-93
2022/01/02 11:30:20;;;;;;;10.07;4.38;;;;;;;;;;5098662;28;20032;-91
2022/01/02 11:32:59;;;;;;;12.85;4.60;;;;;;;;;;5098525;28;20032;-92
2022/01/02 11:35:27;;;;;;;10.35;4.65;;;;;;;;;;5099238;28;20052;-92
2022/01/02 11:37:56;;;;;;;13.80;4.63;;;;;;;;;;5099045;28;20044;-92
2022/01/02 11:40:42;;;;;;;10.35;4.68;;;;;;;;;;5080848;28;20196;-93
2022/01/02 11:43:08;;;;;;;10.98;4.80;;;;;;;;;;5096914;28;20040;-92
2022/01/02 11:45:41;;;;;;;9.07;5.00;;;;;;;;;;5095278;28;20067;-91
2022/01/02 11:48:25;;;;;;;13.20;4.65;;;;;;;;;;5095636;28;20483;-91
2022/01/02 11:50:51;;;;;;;11.02;4.20;;;;;;;;;;5095091;28;20054;-91
2022/01/02 11:53:19;;;;;;;9.38;4.03;;;;;;;;;;5094826;28;20060;-90
2022/01/02 11:55:45;;;;;;;14.98;4.53;;;;;;;;;;5078898;28;20056;-92
2022/01/02 11:58:12;;;;;;;11.77;4.10;;;;;;;;;;5096642;28;20048;-90
2022/01/02 12:00:43;;;;;;;10.88;4.05;;;;;;;;;;5094740;28;20055;-93
2022/01/02 12:03:29;;;;;;;13.35;4.15;;;;;;;;;;5094398;28;20038;-91
2022/01/02 12:06:17;;;;;;;12.55;4.00;;;;;;;;;;5095860;28;20050;-90
2022/01/02 12:08:43;;;;;;;14.93;3.72;;;;;;;;;;5094499;28;20047;-90
2022/01/02 12:11:28;;;;;;;10.20;3.92;;;;;;;;;;5095370;28;20040;-90
2022/01/02 12:14:03;;;;;;;11.63;3.90;;;;;;;;;;5093988;28;20556;-91
2022/01/02 12:16:40;;;;;;;12.90;3.83;;;;;;;;;;5094247;28;20085;-92
2022/01/02 12:19:08;;;;;;;10.98;3.47;;;;;;;;;;5095127;28;20395;-91
2022/01/02 12:21:34;;;;;;;12.52;3.40;;;;;;;;;;5094090;28;20538;-91
2022/01/02 12:24:03;;;;;;;12.65;3.10;;;;;;;;;;5095336;28;20059;-89
2022/01/02 12:26:35;;;;;;;9.88;3.22;;;;;;;;;;5094219;28;20044;-91
2022/01/02 12:29:05;;;;;;;11.52;3.33;;;;;;;;;;5094911;28;20046;-91
2022/01/02 12:31:36;;;;;;;11.15;3.03;;;;;;;;;;5094011;28;20044;-91
2022/01/02 12:34:03;;;;;;;11.85;3.45;;;;;;;;;;5093785;28;20076;-91
2022/01/02 12:36:30;;;;;;;13.80;3.25;;;;;;;;;;5094781;28;20043;-90
2022/01/02 12:38:56;;;;;;;12.60;3.03;;;;;;;;;;5093496;28;20055;-91
2022/01/02 12:41:27;;;;;;;14.95;3.20;;;;;;;;;;5094965;28;20047;-90
2022/01/02 12:44:26;;;;;;;14.52;3.30;;;;;;;;;;5093870;28;20048;-90
2022/01/02 12:46:53;;;;;;;13.75;2.72;;;;;;;;;;5093805;28;20055;-92
2022/01/02 12:49:21;;;;;;;14.20;3.42;;;;;;;;;;5094346;28;20047;-89
2022/01/02 12:51:48;;;;;;;13.48;3.33;;;;;;;;;;5093493;28;20036;-91
2022/01/02 12:54:15;;;;;;;11.93;3.05;;;;;;;;;;5093041;28;20039;-91
2022/01/02 12:56:48;;;;;;;16.33;3.08;;;;;;;;;;5094655;28;20395;-90
2022/01/02 12:59:23;;;;;;;13.13;3.17;;;;;;;;;;5093497;28;20391;-93
2022/01/02 13:01:56;;;;;;;13.98;3.10;;;;;;;;;;5093238;28;20040;-92
2022/01/02 13:04:23;;;;;;;14.95;3.05;;;;;;;;;;5093066;28;20043;-89
2022/01/02 13:06:53;;;;;;;14.70;3.38;;;;;;;;;;5094780;28;20044;-90
2022/01/02 13:09:23;;;;;;;15.07;2.40;;;;;;;;;;5094295;28;20051;-88
2022/01/02 13:11:50;;;;;;;11.75;3.35;;;;;;;;;;5093322;28;20059;-87
2022/01/02 13:14:29;;;;;;;12.85;2.97;;;;;;;;;;5092876;28;20490;-90
2022/01/02 13:16:55;;;;;;;14.85;2.67;;;;;;;;;;5092953;28;20071;-88
2022/01/02 13:19:21;;;;;;;11.10;2.40;;;;;;;;;;5093856;28;20040;-91
2022/01/02 13:21:47;;;;;;;14.00;2.90;;;;;;;;;;5093012;28;20044;-89
2022/01/02 13:24:24;;;;;;;14.18;2.88;;;;;;;;;;5093728;28;20491;-91
2022/01/02 13:26:50;;;;;;;13.48;2.20;;;;;;;;;;5093442;28;20044;-89
2022/01/02 13:29:23;;;;;;;13.38;3.10;;;;;;;;;;5092597;28;20040;-89
2022/01/02 13:31:50;;;;;;;14.02;2.53;;;;;;;;;;5094969;28;20044;-89
2022/01/02 13:34:22;;;;;;;15.27;2.55;;;;;;;;;;5093451;28;20036;-92
2022/01/02 13:36:57;;;;;;;10.60;1.95;;;;;;;;;;5095089;28;20042;-90
2022/01/02 13:39:41;;;;;;;11.73;2.15;;;;;;;;;;5094300;28;20044;-91
2022/01/02 13:42:08;;;;;;;10.27;1.75;;;;;;;;;;5094290;28;20071;-91
2022/01/02 13:44:42;;;;;;;13.30;2.38;;;;;;;;;;5092687;28;20055;-92
2022/01/02 13:47:08;;;;;;;12.23;1.77;;;;;;;;;;5093062;28;20139;-90
2022/01/02 13:49:56;;;;;;;10.27;1.67;;;;;;;;;;5093905;28;20123;-93
2022/01/02 13:52:22;;;;;;;14.15;2.15;;;;;;;;;;5093686;28;20506;-92
2022/01/02 13:54:49;;;;;;;7.18;1.50;;;;;;;;;;5092658;28;20044;-90
2022/01/02 13:57:15;;;;;;;8.43;1.63;;;;;;;;;;5092316;28;20491;-93
2022/01/02 13:59:42;;;;;;;11.10;1.88;;;;;;;;;;5094040;28;20051;-90
2022/01/02 14:02:08;;;;;;;7.95;1.50;;;;;;;;;;5075968;28;20047;-91
2022/01/02 14:04:53;;;;;;;8.93;1.90;;;;;;;;;;5093093;28;20406;-90
2022/01/02 14:07:19;;;;;;;9.45;1.42;;;;;;;;;;5093069;28;20047;-92
2022/01/02 14:09:52;;;;;;;8.43;1.98;;;;;;;;;;5092584;28;20094;-93
2022/01/02 14:12:20;;;;;;;13.30;2.08;;;;;;;;;;5093006;28;20047;-92
2022/01/02 14:14:49;;;;;;;13.18;1.77;;;;;;;;;;5092750;28;20048;-92
2022/01/02 14:17:30;;;;;;;10.30;2.60;;;;;;;;;;5092731;28;20376;-92
2022/01/02 14:19:57;;;;;;;8.43;1.40;;;;;;;;;;5092815;28;20048;-92
2022/01/02 14:22:25;;;;;;;15.52;2.05;;;;;;;;;;5092916;28;20048;-92
2022/01/02 14:24:52;;;;;;;9.20;1.88;;;;;;;;;;5092070;28;20511;-92
2022/01/02 14:27:29;;;;;;;10.23;1.88;;;;;;;;;;5093609;28;20127;-93
2022/01/02 14:29:56;;;;;;;12.52;2.10;;;;;;;;;;5092724;28;20051;-93
2022/01/02 14:32:23;;;;;;;10.88;1.50;;;;;;;;;;5093739;28;20495;-94
2022/01/02 14:34:49;;;;;;;11.45;1.80;;;;;;;;;;5075299;28;20048;-93
2022/01/02 14:37:16;;;;;;;8.60;1.45;;;;;;;;;;5093832;28;20076;-93
2022/01/02 14:39:42;;;;;;;8.98;2.17;;;;;;;;;;5093920;28;20067;-91
2022/01/02 14:42:09;;;;;;;10.20;1.60;;;;;;;;;;5097823;28;20040;-93